• Join FlightAware (Why Join?)
  • Login
  • US Flag 
03:19AM EDT


 

Airport Tracker/Info


-or-


 

Live Flight TrackerFlight Track Log ✈ TAM3490 ✈ 05-Sep-2013 ✈ SBGR / GRU - SBSR / SJP

Flight Track Log - Related Links

Times and Time Zones

All times are in EDT time to prevent confusion due to time zone crossing. See the TAM3490 flight status page for this flight to view local times or setup timezone preferences in your user account.

Time Position Orientation Groundspeed Altitude Reporting Facility
EDT Latitude Longitude Course Direction KTS MPH feet Rate Location/Type
06:11AM -23.4290 -46.4650 70° East 160 184  Level FlightAware
06:12AM -23.4260 -46.4510 77° East 144 166 3,200 5,700 Climbing FlightAware
06:12AM -23.4220 -46.4370 73° East 155 178 3,800 1,980 Climbing FlightAware
06:12AM -23.4270 -46.4130 103° East 176 203 4,900 2,400 Climbing FlightAware
06:13AM -23.4310 -46.4100 145° Southeast 186 214 5,200 3,000 Climbing FlightAware
06:13AM -23.4390 -46.4090 173° South 196 226 5,600 2,220 Climbing FlightAware
06:13AM -23.4550 -46.4150 199° South 200 230 6,300 2,160 Climbing FlightAware
06:13AM -23.4640 -46.4240 223° Southwest 210 242 6,700 1,980 Climbing FlightAware
06:14AM -23.4770 -46.4410 230° Southwest 229 264 7,300 2,460 Climbing FlightAware
06:14AM -23.4840 -46.4520 235° Southwest 231 266 8,000 2,880 Climbing FlightAware
06:14AM -23.4980 -46.4740 235° Southwest 235 270 9,000 3,360 Climbing FlightAware
06:15AM -23.5250 -46.5120 232° Southwest 224 258 11,600 2,880 Climbing FlightAware
06:15AM -23.5500 -46.5460 231° Southwest 267 307 12,600 1,500 Climbing FlightAware
06:16AM -23.5820 -46.5910 232° Southwest 325 374 13,400 1,560 Climbing FlightAware
06:17AM -23.6170 -46.6460 235° Southwest 362 417 14,500 2,280 Climbing FlightAware
06:17AM -23.6220 -46.6670 255° West 356 410 15,300 3,120 Climbing FlightAware
06:17AM -23.6160 -46.7260 276° West 359 413 16,900 2,640 Climbing FlightAware
06:18AM -23.6060 -46.7920 279° West 371 427 18,400 2,580 Climbing FlightAware
06:19AM -23.5950 -46.8580 280° West 377 434 20,000 2,460 Climbing FlightAware
06:19AM -23.5800 -46.9270 283° West 389 448 21,400 2,280 Climbing FlightAware
06:20AM -23.5490 -46.9830 301° West 394 453 22,700 2,820 Climbing FlightAware
06:20AM -23.5140 -47.0450 302° West 382 440 24,700 3,060 Climbing FlightAware
06:21AM -23.4850 -47.0960 302° West 376 433 26,200 2,700 Climbing FlightAware
06:21AM -23.4550 -47.1470 303° West 366 421 27,600 1,500 Climbing FlightAware
06:22AM -23.4230 -47.2040 301° West 356 410 28,000 300 Climbing FlightAware
06:23AM -23.3890 -47.2630 302° West 391 450 28,000  Level FlightAware
06:23AM -23.3540 -47.3240 302° West 419 482 28,000  Level FlightAware
06:24AM -23.3160 -47.3910 302° West 424 488 28,000  Level FlightAware
06:24AM -23.2830 -47.4480 302° West 424 488 28,000  Level FlightAware
06:25AM -23.2460 -47.5130 302° West 424 488 28,000  Level FlightAware
06:26AM -23.2060 -47.5820 302° West 426 490 28,000  Level FlightAware
06:26AM -23.1720 -47.6400 303° West 425 489 28,000  Level FlightAware
06:27AM -23.1340 -47.7060 302° West 425 489 28,000  Level FlightAware
06:27AM -23.0970 -47.7710 302° West 427 491 28,000  Level FlightAware
06:28AM -23.0610 -47.8330 302° West 426 490 28,000  Level FlightAware
06:28AM -23.0250 -47.8950 302° West 428 493 28,000  Level FlightAware
06:29AM -22.9910 -47.9540 302° West 428 493 28,000  Level FlightAware
06:30AM -22.9550 -48.0160 302° West 428 493 28,000  Level FlightAware
06:30AM -22.9190 -48.0790 302° West 428 493 28,000  Level FlightAware
06:31AM -22.8810 -48.1430 303° West 429 494 28,000  Level FlightAware
06:31AM -22.8410 -48.2130 302° West 430 495 28,000  Level FlightAware
06:32AM -22.8040 -48.2750 303° West 430 495 28,000  Level FlightAware
06:33AM -22.7650 -48.3430 302° West 430 495 28,000  Level FlightAware
06:33AM -22.7290 -48.4040 303° West 430 495 28,000  Level FlightAware
06:34AM -22.6900 -48.4690 303° West 430 495 28,000  Level FlightAware
06:34AM -22.6520 -48.5350 302° West 429 494 28,000  Level FlightAware
06:35AM -22.6160 -48.5960 303° West 429 494 28,000  Level FlightAware
06:35AM -22.5820 -48.6540 302° West 429 494 28,000  Level FlightAware
06:36AM -22.5470 -48.7140 302° West 430 495 28,000  Level FlightAware
06:37AM -22.5050 -48.7860 302° West 431 496 28,000  Level FlightAware
06:37AM -22.4670 -48.8490 303° West 432 497 28,000  Level FlightAware
06:38AM -22.4320 -48.9080 303° West 433 498 28,000  Level FlightAware
06:38AM -22.3880 -48.9780 304° West 435 501 28,000 -120 Level FlightAware
06:39AM -22.3380 -49.0350 313° West 438 504 27,900 -600 Descending FlightAware
06:39AM -22.2910 -49.0730 323° Northwest 419 482 27,400 -900 Descending FlightAware
06:40AM -22.2280 -49.1110 331° Northwest 388 447 26,900 -1,260 Descending FlightAware
06:41AM -22.1690 -49.1350 339° North 380 437 25,900 -1,860 Descending FlightAware
06:41AM -22.1070 -49.1490 348° North 379 436 24,700 -2,100 Descending FlightAware
06:42AM -22.0480 -49.1610 349° North 376 433 23,500 -2,100 Descending FlightAware
06:42AM -21.9870 -49.1730 350° North 377 434 22,300 -2,040 Descending FlightAware
06:43AM -21.9270 -49.1860 349° North 376 433 21,100 -2,160 Descending FlightAware
06:44AM -21.8710 -49.2000 347° North 372 428 19,900 -2,040 Descending FlightAware
06:44AM -21.8130 -49.2220 341° North 367 422 18,800 -1,800 Descending FlightAware
06:45AM -21.7570 -49.2430 341° North 364 419 17,800 -1,800 Descending FlightAware
06:45AM -21.7050 -49.2630 340° North 360 414 16,800 -1,860 Descending FlightAware
06:46AM -21.6490 -49.2840 341° North 358 412 15,700 -1,860 Descending FlightAware
06:47AM -21.5910 -49.3060 341° North 354 407 14,600 -1,800 Descending FlightAware
06:47AM -21.5390 -49.3250 341° North 351 404 13,600 -1,800 Descending FlightAware
06:48AM -21.4810 -49.3470 341° North 345 397 12,500 -1,680 Descending FlightAware
06:48AM -21.4350 -49.3640 341° North 339 390 11,700 -1,680 Descending FlightAware
06:49AM -21.3800 -49.3850 340° North 332 382 10,600 -1,440 Descending FlightAware
06:49AM -21.3310 -49.4030 341° North 310 357 10,000 -900 Descending FlightAware
06:50AM -21.3030 -49.4140 340° North 295 339 9,800 -1,080 Descending FlightAware
06:50AM -21.2780 -49.4230 341° North 288 331 9,300 -1,680 Descending FlightAware
06:50AM -21.2520 -49.4330 340° North 287 330 8,700 -1,860 Descending FlightAware
06:51AM -21.2330 -49.4400 341° North 288 331 8,200 -1,800 Descending FlightAware
06:51AM -21.1980 -49.4530 341° North 289 333 7,300 -1,740 Descending FlightAware
06:52AM -21.1520 -49.4700 341° North 288 331 6,400 -960 Descending FlightAware
06:52AM -21.1110 -49.4850 341° North 287 330 6,200 -720 Descending FlightAware
06:55AM -20.9609 -49.4449 14° North  Level Estimated
06:55AM -20.9670 -49.5380 14° North 3,900  Level FlightAware
06:56AM -20.8940 -49.5100 39° Northeast 3,100 -480 Descending FlightAware
06:57AM -20.8647 -49.4486 39° Northeast  Level Estimated
06:57AM -20.8930 -49.5080 62° Northeast 150 173 3,100  Level FlightAware
06:57AM -20.8770 -49.4880 49° Northeast 119 137 3,200  Climbing FlightAware
06:57AM -20.8720 -49.4810 53° Northeast 120 138 3,100 -600 Descending FlightAware
06:58AM -20.8670 -49.4740 53° Northeast 118 136 2,900 -600 Descending FlightAware
06:58AM -20.8590 -49.4630 52° Northeast 112 129 2,700 -600 Descending FlightAware
06:58AM -20.8540 -49.4570 48° Northeast 112 129 2,500 -660 Descending FlightAware
06:59AM -20.8460 -49.4460 52° Northeast 116 133 2,300 -480 Descending FlightAware
06:59AM -20.8420 -49.4400 54° Northeast 116 133 2,200 -600 Descending FlightAware
06:59AM -20.8330 -49.4280 51° Northeast 116 133 1,900 -660 Descending FlightAware
07:00AM -20.8240 -49.4170 49° Northeast 121 139 1,700 -540 Descending FlightAware
07:00AM -20.8190 -49.4090 56° Northeast 119 137 -6,000 Descending FlightAware
07:01AM -20.8150 -49.4050 43° Northeast 119 137  Level FlightAware
07:01AM -20.8130 -49.4030 43° Northeast 119 137  Level FlightAware
07:02AM -20.8120 -49.4040 317° Northwest 119 137  Level FlightAware
07:03AM -20.8170 -49.3920 114° Southeast 119 137  Level FlightAware
07:04AM -20.8170 -49.3910 90° East 119 137  Level FlightAware
07:06AM -20.8166 -49.4065 272° West  Level Estimated
07:06AM -20.8120 -49.4040 272° West 119 137  Level FlightAware
07:06AM -20.8170 -49.3910 112° Southeast 119 137  Level FlightAware
07:07AM -20.8180 -49.3910 180° South 119 137  Level FlightAware
07:08AM -20.8120 -49.4040 296° West 119 137  Level FlightAware
07:08AM -20.8170 -49.3920 114° Southeast 119 137  Level FlightAware
07:09AM -20.8120 -49.4040 294° West 119 137  Level FlightAware
07:09AM -20.8170 -49.3920 114° Southeast 119 137  Level FlightAware
07:12AM -20.8166 -49.4065 272° West  Level Estimated
07:12AM -20.8180 -49.3910 272° West 119 137  Level FlightAware
07:13AM -20.8120 -49.4040 296° West 119 137  Level FlightAware
07:13AM -20.8180 -49.3910 116° Southeast 119 137  Level FlightAware
07:14AM -20.8120 -49.4040 296° West 119 137  Level FlightAware
07:14AM -20.8170 -49.3910 112° Southeast 119 137  Level FlightAware
07:15AM -20.8170 -49.3920 270° West 119 137  Level FlightAware
07:17AM -20.8120 -49.4040 294° West 119 137  Level FlightAware
07:17AM -20.8170 -49.3920 114° Southeast 119 137  Level FlightAware
07:19AM -20.8120 -49.4040 294° West 119 137  Level FlightAware
07:20AM -20.8170 -49.3920 114° Southeast 119 137  Level FlightAware
07:21AM -20.8120 -49.4040 294° West 119 137  Level FlightAware
07:21AM -20.8180 -49.3910 116° Southeast 119 137  Level FlightAware
07:22AM -20.8170 -49.3920 317° Northwest 119 137  Level FlightAware
07:22AM -20.8120 -49.4040 294° West 119 137  Level FlightAware
07:24AM -20.8170 -49.3920 114° Southeast 119 137  Level FlightAware
07:26AM -20.8120 -49.4040 294° West 119 137  Level FlightAware
07:27AM -20.8170 -49.3910 112° Southeast 119 137  Level FlightAware
07:30AM -20.8120 -49.4040 292° West 119 137  Level FlightAware
07:31AM -20.8180 -49.3910 116° Southeast 119 137  Level FlightAware
07:32AM -20.8170 -49.3920 317° Northwest 119 137  Level FlightAware
07:33AM -20.8180 -49.3910 137° Southeast 119 137  Level FlightAware
07:33AM -20.8120 -49.4040 296° West 119 137  Level FlightAware
07:34AM -20.8170 -49.3910 112° Southeast 119 137  Level FlightAware
07:34AM -20.8180 -49.3910 180° South 119 137  Level FlightAware
07:34AM -20.8120 -49.4040 296° West 119 137  Level FlightAware
07:35AM -20.8170 -49.3920 114° Southeast 119 137  Level FlightAware
07:36AM -20.8120 -49.4040 294° West 119 137  Level FlightAware
07:37AM -20.8170 -49.3920 114° Southeast 119 137  Level FlightAware
07:37AM -20.8120 -49.4040 294° West 119 137  Level FlightAware
07:37AM -20.8180 -49.3910 116° Southeast 119 137  Level FlightAware
07:37AM -20.8120 -49.4040 296° West 119 137  Level FlightAware
07:38AM -20.8180 -49.3910 116° Southeast 119 137  Level FlightAware
07:39AM -20.8170 -49.3910 360° North 119 137  Level FlightAware
07:39AM -20.8120 -49.4040 292° West 119 137  Level FlightAware
07:40AM -20.8170 -49.3910 112° Southeast 119 137  Level FlightAware
07:40AM -20.8120 -49.4040 292° West 119 137  Level FlightAware
07:40AM -20.8170 -49.3920 114° Southeast 119 137  Level FlightAware
07:41AM -20.8170 -49.3910 90° East 119 137  Level FlightAware
07:42AM -20.8120 -49.4040 292° West 119 137  Level FlightAware
07:43AM -20.8170 -49.3920 114° Southeast 119 137  Level FlightAware
07:44AM -20.8120 -49.4040 294° West 119 137  Level FlightAware
07:45AM -20.8170 -49.3920 114° Southeast 119 137  Level FlightAware
07:47AM -20.8120 -49.4040 294° West 119 137  Level FlightAware
07:48AM -20.8170 -49.3920 114° Southeast 119 137  Level FlightAware
07:51AM -20.8180 -49.3900 118° Southeast 119 137  Level FlightAware
07:51AM -20.8180 -49.3910 270° West 119 137  Level FlightAware
07:53AM -20.8170 -49.3910 360° North 119 137  Level FlightAware
07:54AM -20.8180 -49.3910 180° South 119 137  Level FlightAware